createdAt,value
2023-06-18T00:00:36.096Z,18.37
2023-06-18T00:06:01.660Z,20.08
2023-06-18T00:11:04.585Z,20.74
2023-06-18T00:16:07.444Z,21.19
2023-06-18T00:21:12.172Z,21.53
2023-06-18T00:26:15.147Z,21.82
2023-06-18T00:31:19.326Z,21.49
2023-06-18T00:36:22.187Z,19.72
2023-06-18T00:41:28.886Z,18.29
2023-06-18T00:46:32.132Z,18.21
2023-06-18T00:51:36.239Z,19.65
2023-06-18T00:56:39.527Z,20.41
2023-06-18T01:01:42.480Z,20.84
2023-06-18T01:06:46.875Z,21.15
2023-06-18T01:11:54.902Z,21.40
2023-06-18T01:17:00.223Z,20.90
2023-06-18T01:22:13.035Z,19.52
2023-06-18T01:27:17.741Z,20.40
2023-06-18T01:32:21.428Z,21.03
2023-06-18T01:37:49.708Z,21.45
2023-06-18T01:43:12.810Z,21.71
2023-06-18T01:48:19.131Z,21.72
2023-06-18T01:53:25.566Z,21.75
2023-06-18T01:58:32.925Z,21.46
2023-06-18T02:03:36.089Z,19.78
2023-06-18T02:08:39.045Z,19.48
2023-06-18T02:13:41.970Z,20.70
2023-06-18T02:18:44.763Z,21.27
2023-06-18T02:23:47.596Z,21.50
2023-06-18T02:28:50.518Z,21.68
2023-06-18T02:33:53.329Z,21.80
2023-06-18T02:38:56.685Z,21.91
2023-06-18T02:43:59.656Z,20.55
2023-06-18T02:49:03.099Z,18.98
2023-06-18T02:54:05.882Z,19.58
2023-06-18T02:59:08.872Z,20.53
2023-06-18T03:04:12.940Z,21.09
2023-06-18T03:09:16.081Z,21.50
2023-06-18T03:14:21.611Z,21.13
2023-06-18T03:19:24.645Z,19.46
2023-06-18T03:24:28.312Z,19.15
2023-06-18T03:29:31.517Z,20.47
2023-06-18T03:34:34.969Z,21.26
2023-06-18T03:39:37.737Z,21.80
2023-06-18T03:44:40.705Z,22.15
2023-06-18T03:49:43.607Z,22.10
2023-06-18T03:54:47.099Z,20.59
2023-06-18T03:59:53.030Z,20.16
2023-06-18T04:04:56.387Z,21.57
2023-06-18T04:09:59.161Z,22.30
2023-06-18T04:15:02.347Z,22.71
2023-06-18T04:20:06.378Z,21.35
2023-06-18T04:25:10.138Z,20.25
2023-06-18T04:30:13.037Z,20.56
2023-06-18T04:35:15.971Z,22.30
2023-06-18T04:40:19.693Z,23.17
2023-06-18T04:45:22.671Z,22.61
2023-06-18T04:50:25.832Z,21.28
2023-06-18T04:55:29.683Z,21.40
2023-06-18T05:00:34.509Z,23.06
2023-06-18T05:05:37.294Z,23.34
2023-06-18T05:10:40.133Z,22.23
2023-06-18T05:15:43.093Z,21.76
2023-06-18T05:20:46.398Z,23.22
2023-06-18T05:25:49.261Z,23.99
2023-06-18T05:30:52.222Z,23.15
2023-06-18T05:35:55.197Z,22.79
2023-06-18T05:40:58.022Z,24.01
2023-06-18T05:46:01.068Z,25.21
2023-06-18T05:51:04.251Z,24.28
2023-06-18T05:56:07.122Z,23.65
2023-06-18T06:01:10.532Z,23.47
2023-06-18T06:06:13.550Z,25.19
2023-06-18T06:11:16.372Z,25.80
2023-06-18T06:16:19.238Z,25.54
2023-06-18T06:21:22.081Z,25.75
2023-06-18T06:26:25.060Z,26.10
2023-06-18T06:31:27.894Z,26.22
2023-06-18T06:36:30.772Z,26.18
2023-06-18T06:41:33.634Z,25.99
2023-06-18T06:46:36.427Z,26.19
2023-06-18T06:51:39.610Z,26.77
2023-06-18T06:56:42.410Z,27.23
2023-06-18T07:01:46.164Z,27.74
2023-06-18T07:06:49.374Z,27.93
2023-06-18T07:11:52.356Z,27.90
2023-06-18T07:16:55.293Z,28.03
2023-06-18T07:21:58.202Z,28.18
2023-06-18T07:27:01.172Z,28.46
2023-06-18T07:32:04.177Z,28.92
2023-06-18T07:37:07.184Z,29.25
2023-06-18T07:42:10.067Z,29.40
2023-06-18T07:47:13.062Z,29.39
2023-06-18T07:52:15.850Z,29.41
2023-06-18T07:57:18.913Z,29.03
2023-06-18T08:02:21.814Z,28.60
2023-06-18T08:07:24.636Z,28.61
2023-06-18T08:12:27.422Z,29.04
2023-06-18T08:17:30.262Z,30.00
2023-06-18T08:22:33.538Z,30.63
2023-06-18T08:27:36.600Z,30.93
2023-06-18T08:32:39.982Z,31.10
2023-06-18T08:37:43.776Z,31.30
2023-06-18T08:42:58.532Z,31.54
2023-06-18T08:48:19.991Z,31.74
2023-06-18T08:53:39.532Z,31.86
2023-06-18T08:58:51.824Z,31.61
2023-06-18T09:03:56.420Z,30.99
2023-06-18T09:09:02.128Z,30.39
2023-06-18T09:14:05.190Z,30.04
2023-06-18T09:19:09.426Z,30.10
2023-06-18T09:24:21.860Z,30.18
2023-06-18T09:29:29.810Z,30.42
2023-06-18T09:34:32.916Z,30.58
2023-06-18T09:39:41.636Z,31.42
2023-06-18T09:44:46.534Z,32.62
2023-06-18T09:49:49.739Z,32.48
2023-06-18T09:54:52.752Z,31.96
2023-06-18T10:00:12.716Z,31.10
2023-06-18T10:05:16.412Z,30.31
2023-06-18T10:10:19.848Z,29.79
2023-06-18T10:15:27.230Z,29.31
2023-06-18T10:20:30.539Z,28.56
2023-06-18T10:25:34.647Z,28.17
2023-06-18T10:30:38.032Z,28.12
2023-06-18T10:35:41.692Z,28.06
2023-06-18T10:40:44.721Z,27.80
2023-06-18T10:46:17.936Z,27.84
2023-06-18T10:51:20.924Z,27.64
2023-06-18T10:56:23.673Z,27.32
2023-06-18T11:01:27.642Z,26.87
2023-06-18T11:06:31.620Z,26.28
2023-06-18T11:11:34.885Z,25.88
2023-06-18T11:16:38.453Z,25.70
2023-06-18T11:21:46.925Z,25.69
2023-06-18T11:26:50.887Z,25.48
2023-06-18T11:31:53.670Z,25.28
2023-06-18T11:36:56.517Z,25.16
2023-06-18T11:42:21.022Z,24.90
2023-06-18T11:47:24.014Z,24.54
2023-06-18T11:52:28.617Z,24.39
2023-06-18T11:57:32.066Z,24.29
2023-06-18T12:02:35.083Z,24.21
2023-06-18T12:07:45.958Z,24.30
2023-06-18T12:12:57.186Z,24.46
2023-06-18T12:18:20.292Z,24.73
2023-06-18T12:23:23.950Z,25.02
2023-06-18T12:28:26.873Z,25.13
2023-06-18T12:33:29.776Z,25.15
2023-06-18T12:38:47.005Z,24.77
2023-06-18T12:43:50.425Z,24.43
2023-06-18T12:48:53.923Z,24.13
2023-06-18T12:53:56.849Z,23.86
2023-06-18T12:59:02.913Z,23.57
2023-06-18T13:04:05.935Z,23.23
2023-06-18T13:09:09.415Z,22.73
2023-06-18T13:14:25.954Z,22.36
2023-06-18T13:19:40.487Z,23.39
2023-06-18T13:24:46.553Z,23.55
2023-06-18T13:29:49.483Z,22.76
2023-06-18T13:34:52.901Z,22.38
2023-06-18T13:39:55.980Z,23.59
2023-06-18T13:45:00.639Z,23.52
2023-06-18T13:50:04.838Z,22.82
2023-06-18T13:55:08.723Z,23.45
2023-06-18T14:00:12.754Z,23.73
2023-06-18T14:05:15.999Z,22.97
2023-06-18T14:10:19.162Z,22.57
2023-06-18T14:15:22.156Z,23.61
2023-06-18T14:20:25.564Z,23.96
2023-06-18T14:25:29.044Z,23.18
2023-06-18T14:30:32.605Z,22.97
2023-06-18T14:35:35.388Z,24.18
2023-06-18T14:40:38.392Z,24.18
2023-06-18T14:45:41.287Z,23.84
2023-06-18T14:50:45.541Z,23.99
2023-06-18T14:55:48.436Z,24.04
2023-06-18T15:00:51.391Z,24.09
2023-06-18T15:05:54.556Z,24.27
2023-06-18T15:10:57.385Z,24.44
2023-06-18T15:16:00.260Z,24.60
2023-06-18T15:21:03.063Z,24.76
2023-06-18T15:26:06.227Z,25.01
2023-06-18T15:31:12.419Z,25.02
2023-06-18T15:36:15.894Z,25.15
2023-06-18T15:41:18.779Z,25.27
2023-06-18T15:46:21.679Z,25.29
2023-06-18T15:51:24.689Z,25.23
2023-06-18T15:56:27.515Z,24.93
2023-06-18T16:01:31.920Z,24.63
2023-06-18T16:06:34.681Z,24.34
2023-06-18T16:11:37.597Z,24.08
2023-06-18T16:16:40.542Z,23.95
2023-06-18T16:21:43.579Z,23.88
2023-06-18T16:26:46.475Z,23.86
2023-06-18T16:31:49.382Z,23.89
2023-06-18T16:36:53.086Z,23.94
2023-06-18T16:41:56.119Z,24.06
2023-06-18T16:46:58.949Z,24.14
2023-06-18T16:52:01.961Z,24.11
2023-06-18T16:57:05.419Z,24.04
2023-06-18T17:02:08.236Z,23.99
2023-06-18T17:07:11.226Z,23.95
2023-06-18T17:12:14.541Z,23.87
2023-06-18T17:17:17.456Z,23.69
2023-06-18T17:22:20.453Z,23.35
2023-06-18T17:27:24.081Z,23.08
2023-06-18T17:32:27.001Z,22.86
2023-06-18T17:37:29.994Z,22.63
2023-06-18T17:42:32.754Z,22.46
2023-06-18T17:47:36.051Z,22.28
2023-06-18T17:52:38.908Z,22.07
2023-06-18T17:57:42.239Z,21.84
2023-06-18T18:02:45.111Z,22.30
2023-06-18T18:07:48.779Z,23.99
2023-06-18T18:12:51.559Z,24.13
2023-06-18T18:17:54.379Z,22.87
2023-06-18T18:22:57.181Z,22.04
2023-06-18T18:27:59.969Z,21.40
2023-06-18T18:33:02.865Z,21.60
2023-06-18T18:38:05.860Z,22.96
2023-06-18T18:43:08.768Z,23.04
2023-06-18T18:48:12.421Z,21.72
2023-06-18T18:53:15.330Z,21.41
2023-06-18T18:58:18.551Z,22.53
2023-06-18T19:03:21.661Z,21.95
2023-06-18T19:08:25.157Z,21.18
2023-06-18T19:13:28.032Z,22.34
2023-06-18T19:18:33.281Z,22.57
2023-06-18T19:23:36.662Z,21.12
2023-06-18T19:28:39.509Z,20.36
2023-06-18T19:33:42.739Z,21.59
2023-06-18T19:38:46.012Z,22.48
2023-06-18T19:43:48.967Z,22.89
2023-06-18T19:48:52.693Z,23.21
2023-06-18T19:53:55.674Z,22.97
2023-06-18T19:58:58.972Z,21.52
2023-06-18T20:04:02.138Z,20.43
2023-06-18T20:09:05.345Z,19.61
2023-06-18T20:14:08.244Z,19.65
2023-06-18T20:19:11.221Z,21.12
2023-06-18T20:24:14.163Z,21.94
2023-06-18T20:29:17.287Z,22.45
2023-06-18T20:34:20.140Z,22.75
2023-06-18T20:39:23.605Z,22.94
2023-06-18T20:44:26.617Z,23.10
2023-06-18T20:49:30.498Z,22.40
2023-06-18T20:54:34.372Z,20.84
2023-06-18T20:59:37.961Z,19.78
2023-06-18T21:04:40.755Z,19.64
2023-06-18T21:09:43.881Z,20.94
2023-06-18T21:14:46.716Z,21.61
2023-06-18T21:19:49.472Z,21.98
2023-06-18T21:24:52.285Z,22.14
2023-06-18T21:29:55.107Z,22.32
2023-06-18T21:34:57.908Z,22.62
2023-06-18T21:40:01.573Z,22.86
2023-06-18T21:45:05.102Z,23.00
2023-06-18T21:50:09.747Z,22.01
2023-06-18T21:55:14.004Z,20.21
2023-06-18T22:00:19.719Z,19.73
2023-06-18T22:05:22.962Z,20.94
2023-06-18T22:10:26.109Z,21.54
2023-06-18T22:15:29.201Z,21.85
2023-06-18T22:20:32.190Z,22.06
2023-06-18T22:25:35.106Z,22.15
2023-06-18T22:30:38.217Z,22.23
2023-06-18T22:35:41.064Z,22.20
2023-06-18T22:40:43.881Z,22.16
2023-06-18T22:45:46.780Z,22.04
2023-06-18T22:50:49.914Z,22.02
2023-06-18T22:55:52.713Z,21.91
2023-06-18T23:00:56.431Z,21.98
2023-06-18T23:05:59.360Z,22.09
2023-06-18T23:11:03.190Z,22.13
2023-06-18T23:16:06.112Z,22.19
2023-06-18T23:21:09.766Z,22.20
2023-06-18T23:26:12.633Z,21.48
2023-06-18T23:31:17.221Z,19.43
2023-06-18T23:36:20.265Z,18.67
2023-06-18T23:41:23.169Z,19.76
2023-06-18T23:46:25.989Z,20.10
2023-06-18T23:51:28.929Z,20.38
2023-06-18T23:56:31.676Z,20.49
